Arch, NM

5:50 AM MST on March 05, 2015 (GMT -0700)
S of ENMU | Change Station
CLOSE
Current Station
Personal Weather Station
Location: Portales, NM
Elevation: 4078 ft
Nearby Weather Stations

Elev 4078 ft 34.17 °N, 103.35 °W | Updated 23 seconds ago

Partly Cloudy
Partly Cloudy
23.0 °F
Feels Like 23 °F
N
1.3
Wind Variable Wind from NNW
Gusts 1.6 mph

Today
High -- | Low -- °F
--% Chance of Precip.
Yesterday
High -- | Low -- °F
Precip. -- in
6:17 AM 5:52 PM
Full, 100% visible
Pressure 30.52 in
Visibility 10.0 miles
Clouds Few 3700 ft
Windchill 23 °F
Dew Point 17 °F
Humidity 77%
Rainfall in
Snow Depth Not available.
UV 0 out of 12
Pollen 2.90 out of 12
Air Quality Not available.
Flu Activity Not available.
METAR KCVS 051158Z AUTO 00000KT 10SM FEW037 M06/M09 A3040 RMK AO2 SLP333 60000 T10621091 11056 21064 55000 $

More Conditions Fewer Conditions

Pressure 30.52 in
Visibility 10.0 miles
Clouds Few 3700 ft
Windchill 23 °F
Dew Point 17 °F
Humidity 77%
Rainfall in
Snow Depth Not available.
UV 0 out of 12
Pollen 2.90 out of 12
Air Quality Not available.
Flu Activity Not available.
METAR KCVS 051158Z AUTO 00000KT 10SM FEW037 M06/M09 A3040 RMK AO2 SLP333 60000 T10621091 11056 21064 55000 $

More Conditions Fewer Conditions

Nowcast | as of 3:23 am MST on March 5, 2015

Through 6 am MST...patchy freezing fog may exist in areas along the east slopes of the Central Mountain chain as well as in the eastern plains. Some locations which may be impacted include Ruidoso...Las Vegas and Clines Corners. Visibility may be limited at times to less than one mile in freezing fog. For Road conditions dial 5 1 1 or visit N M roads dot com.

×

10-Day Weather Forecast

Almanac

Astronomy

Mar. 05, 2015 Rise Set
Actual Time
Civil Twilight
Nautical Twilight
Astronomical Twilight
Moon
Length of Visible Light
Length of Day
Tomorrow will be .
, % of the Moon is Illuminated

Today's Extremes

State Highs State Lows

Community

WunderPhotos

Upload Photos

1,802,737 photos uploaded!

WunderBlogs® & News

Nearby

Air Quality

  Air Quality AQ Index Pollutant
Not available.

Snow Depth

Station Depth Elevation

Earthquake Activity

City Distance Mag. Time & Date
Minimum magnitude displayed is 2.5.

Coastal Water Temperatures

Place Temperature

Nearby Weather Stations